createdAt,value
2023-09-27T00:00:44.218Z,62.5
2023-09-27T00:03:53.730Z,57.3
2023-09-27T00:06:41.616Z,57.7
2023-09-27T00:09:29.327Z,59.9
2023-09-27T00:12:18.001Z,62.2
2023-09-27T00:15:06.441Z,63.1
2023-09-27T00:17:55.931Z,58.9
2023-09-27T00:20:44.381Z,57.3
2023-09-27T00:23:32.006Z,59.1
2023-09-27T00:26:20.677Z,61.9
2023-09-27T00:29:08.259Z,64.3
2023-09-27T00:31:55.863Z,61.1
2023-09-27T00:34:43.462Z,57.1
2023-09-27T00:37:31.181Z,57.8
2023-09-27T00:40:20.141Z,60.1
2023-09-27T00:43:08.859Z,62.4
2023-09-27T00:45:56.189Z,63.8
2023-09-27T00:48:46.645Z,59.6
2023-09-27T00:51:34.392Z,57
2023-09-27T00:54:22.283Z,58.4
2023-09-27T00:57:10.570Z,61
2023-09-27T00:59:58.018Z,63.4
2023-09-27T01:02:45.765Z,62.8
2023-09-27T01:05:33.722Z,58.2
2023-09-27T01:08:21.685Z,57.5
2023-09-27T01:11:09.180Z,59.8
2023-09-27T01:13:56.721Z,62.1
2023-09-27T01:16:44.041Z,63.9
2023-09-27T01:19:31.620Z,60.7
2023-09-27T01:22:20.388Z,57.1
2023-09-27T01:25:07.845Z,58.4
2023-09-27T01:28:01.472Z,61
2023-09-27T01:30:51.362Z,63.3
2023-09-27T01:33:38.703Z,63.1
2023-09-27T01:36:26.360Z,58.6
2023-09-27T01:39:14.093Z,57.5
2023-09-27T01:42:01.525Z,59.5
2023-09-27T01:44:49.961Z,62.1
2023-09-27T01:47:37.491Z,63
2023-09-27T01:50:25.155Z,58.6
2023-09-27T01:53:13.863Z,57.4
2023-09-27T01:56:01.440Z,59.5
2023-09-27T01:58:49.064Z,61.8
2023-09-27T02:01:36.544Z,63.7
2023-09-27T02:04:24.400Z,60.3
2023-09-27T02:07:11.702Z,57.4
2023-09-27T02:09:59.071Z,58.8
2023-09-27T02:12:46.351Z,61.1
2023-09-27T02:15:33.934Z,63.8
2023-09-27T02:18:21.435Z,61.9
2023-09-27T02:21:08.847Z,57.6
2023-09-27T02:23:56.458Z,57.7
2023-09-27T02:26:43.879Z,60.1
2023-09-27T02:29:31.426Z,62.5
2023-09-27T02:32:21.005Z,63.4
2023-09-27T02:35:08.506Z,59.1
2023-09-27T02:37:57.326Z,57.8
2023-09-27T02:40:44.715Z,59.8
2023-09-27T02:43:32.620Z,62
2023-09-27T02:46:21.006Z,63.4
2023-09-27T02:49:08.417Z,59
2023-09-27T02:51:55.910Z,57.8
2023-09-27T02:54:43.282Z,59.8
2023-09-27T02:57:31.540Z,62.3
2023-09-27T03:00:20.100Z,63
2023-09-27T03:03:07.713Z,58.5
2023-09-27T03:05:55.904Z,57.4
2023-09-27T03:08:43.761Z,59.4
2023-09-27T03:11:31.774Z,62.1
2023-09-27T03:14:19.994Z,63.1
2023-09-27T03:17:08.000Z,58.5
2023-09-27T03:19:55.926Z,57.4
2023-09-27T03:22:43.363Z,59.7
2023-09-27T03:25:31.104Z,62.4
2023-09-27T03:28:19.755Z,62.9
2023-09-27T03:31:07.426Z,58.6
2023-09-27T03:33:55.624Z,57.6
2023-09-27T03:36:43.077Z,60
2023-09-27T03:39:30.607Z,62.7
2023-09-27T03:42:21.465Z,62.8
2023-09-27T03:45:09.155Z,58.6
2023-09-27T03:47:57.644Z,57.4
2023-09-27T03:50:45.198Z,59.5
2023-09-27T03:53:33.833Z,61.9
2023-09-27T03:56:22.357Z,64.1
2023-09-27T03:59:09.828Z,60.7
2023-09-27T04:01:59.539Z,56.9
2023-09-27T04:04:47.056Z,58.5
2023-09-27T04:07:34.702Z,61.3
2023-09-27T04:10:22.467Z,64.5
2023-09-27T04:13:10.452Z,62.1
2023-09-27T04:15:58.110Z,57.6
2023-09-27T04:18:45.804Z,57.9
2023-09-27T04:21:33.299Z,59.9
2023-09-27T04:24:20.579Z,62.7
2023-09-27T04:27:08.652Z,63.3
2023-09-27T04:29:56.096Z,59
2023-09-27T04:32:43.704Z,57.9
2023-09-27T04:35:32.927Z,60
2023-09-27T04:38:21.404Z,62.6
2023-09-27T04:41:09.376Z,63.3
2023-09-27T04:43:57.201Z,58.5
2023-09-27T04:46:45.410Z,57.7
2023-09-27T04:49:33.140Z,59.8
2023-09-27T04:52:22.078Z,62.9
2023-09-27T04:55:10.643Z,63.3
2023-09-27T04:57:58.662Z,58.7
2023-09-27T05:00:46.525Z,57.5
2023-09-27T05:03:34.304Z,60.1
2023-09-27T05:06:22.240Z,62.6
2023-09-27T05:09:09.712Z,64
2023-09-27T05:11:57.534Z,59.1
2023-09-27T05:14:44.851Z,58
2023-09-27T05:17:32.507Z,60.4
2023-09-27T05:20:21.369Z,63.3
2023-09-27T05:23:09.112Z,62.4
2023-09-27T05:25:56.554Z,58.1
2023-09-27T05:28:44.052Z,57.8
2023-09-27T05:31:31.769Z,60.7
2023-09-27T05:34:20.158Z,63.8
2023-09-27T05:37:07.505Z,62.3
2023-09-27T05:39:54.902Z,58.2
2023-09-27T05:42:42.476Z,57.5
2023-09-27T05:45:30.259Z,60.2
2023-09-27T05:48:18.914Z,62.8
2023-09-27T05:51:06.208Z,63.4
2023-09-27T05:53:53.819Z,59
2023-09-27T05:56:41.435Z,58
2023-09-27T05:59:31.980Z,60.3
2023-09-27T06:02:21.745Z,63.2
2023-09-27T06:05:16.374Z,63.1
2023-09-27T06:08:03.882Z,58.8
2023-09-27T06:10:51.852Z,57.6
2023-09-27T06:13:39.241Z,60.2
2023-09-27T06:16:26.662Z,63
2023-09-27T06:19:14.269Z,63
2023-09-27T06:22:03.140Z,58.9
2023-09-27T06:24:51.319Z,58
2023-09-27T06:27:38.805Z,60.6
2023-09-27T06:30:26.476Z,64
2023-09-27T06:33:14.306Z,64.1
2023-09-27T06:36:01.703Z,60.3
2023-09-27T06:38:51.995Z,57.5
2023-09-27T06:41:39.848Z,59.8
2023-09-27T06:44:27.366Z,62.7
2023-09-27T06:47:14.973Z,63.8
2023-09-27T06:50:02.760Z,59.8
2023-09-27T06:53:00.264Z,57.5
2023-09-27T06:55:55.259Z,60.1
2023-09-27T06:58:42.554Z,63
2023-09-27T07:01:30.478Z,63.2
2023-09-27T07:04:18.845Z,59.4
2023-09-27T07:07:06.369Z,58.4
2023-09-27T07:09:53.804Z,60.9
2023-09-27T07:12:41.604Z,63.9
2023-09-27T07:15:29.206Z,63.5
2023-09-27T07:18:18.555Z,59.1
2023-09-27T07:21:06.418Z,58
2023-09-27T07:23:57.077Z,60.4
2023-09-27T07:26:45.695Z,62.9
2023-09-27T07:29:38.320Z,62.9
2023-09-27T07:32:25.680Z,58.9
2023-09-27T07:35:13.173Z,57.4
2023-09-27T07:38:02.537Z,60.1
2023-09-27T07:40:53.430Z,62.2
2023-09-27T07:43:40.789Z,63.5
2023-09-27T07:46:28.545Z,58.8
2023-09-27T07:49:16.804Z,57.5
2023-09-27T07:52:04.472Z,59.2
2023-09-27T07:54:51.796Z,61.6
2023-09-27T07:57:39.203Z,63.5
2023-09-27T08:00:32.042Z,61.8
2023-09-27T08:03:21.391Z,57.3
2023-09-27T08:06:09.180Z,57.8
2023-09-27T08:08:57.078Z,59.4
2023-09-27T08:11:44.952Z,61.7
2023-09-27T08:14:33.158Z,63.3
2023-09-27T08:17:22.415Z,61.1
2023-09-27T08:20:09.978Z,57.3
2023-09-27T08:22:57.990Z,56.8
2023-09-27T08:25:45.611Z,58.5
2023-09-27T08:28:34.052Z,60.1
2023-09-27T08:31:23.439Z,61.5
2023-09-27T08:34:11.606Z,62.5
2023-09-27T08:36:59.635Z,60.8
2023-09-27T08:39:47.837Z,56.8
2023-09-27T08:42:35.703Z,56.6
2023-09-27T08:45:23.582Z,58.5
2023-09-27T08:48:12.163Z,59.5
2023-09-27T08:51:04.128Z,60.6
2023-09-27T08:53:52.295Z,61.8
2023-09-27T08:56:40.142Z,61.7
2023-09-27T08:59:28.363Z,62
2023-09-27T09:02:16.591Z,61.8
2023-09-27T09:05:07.872Z,62.2
2023-09-27T09:07:57.817Z,62.1
2023-09-27T09:10:47.104Z,61.9
2023-09-27T09:13:34.774Z,61.3
2023-09-27T09:16:41.915Z,56.4
2023-09-27T09:19:44.408Z,55.9
2023-09-27T09:23:01.101Z,55.8
2023-09-27T09:25:58.222Z,57.2
2023-09-27T09:28:46.216Z,57.7
2023-09-27T09:31:41.465Z,58
2023-09-27T09:34:39.196Z,57.2
2023-09-27T09:37:27.352Z,56.6
2023-09-27T09:40:16.124Z,55.3
2023-09-27T09:43:03.854Z,57.1
2023-09-27T09:45:51.397Z,56.9
2023-09-27T09:48:39.875Z,56.1
2023-09-27T09:51:27.735Z,56.1
2023-09-27T09:54:16.288Z,56.9
2023-09-27T09:57:25.055Z,56.6
2023-09-27T10:00:21.468Z,56.1
2023-09-27T10:03:13.085Z,55.4
2023-09-27T10:06:06.637Z,55
2023-09-27T10:08:56.401Z,54.8
2023-09-27T10:11:48.387Z,53.1
2023-09-27T10:14:36.984Z,53.7
2023-09-27T10:17:25.932Z,53.7
2023-09-27T10:20:15.107Z,52.4
2023-09-27T10:23:06.106Z,52
2023-09-27T10:25:56.516Z,51.1
2023-09-27T10:29:02.859Z,52
2023-09-27T10:32:01.030Z,51
2023-09-27T10:35:09.304Z,51.4
2023-09-27T10:38:07.718Z,49.4
2023-09-27T10:40:56.401Z,50.3
2023-09-27T10:43:43.761Z,50.5
2023-09-27T10:46:32.293Z,50.3
2023-09-27T10:49:27.028Z,48.8
2023-09-27T10:52:22.933Z,50.2
2023-09-27T10:55:12.209Z,48.4
2023-09-27T10:58:00.592Z,49.9
2023-09-27T11:00:48.526Z,50.4
2023-09-27T11:03:37.747Z,50.1
2023-09-27T11:06:25.206Z,48.3
2023-09-27T11:09:14.175Z,49.4
2023-09-27T11:12:05.237Z,48.9
2023-09-27T11:14:54.133Z,46.9
2023-09-27T11:17:42.872Z,45.4
2023-09-27T11:20:30.872Z,46.7
2023-09-27T11:23:19.567Z,46.5
2023-09-27T11:26:09.994Z,46
2023-09-27T11:28:57.659Z,45
2023-09-27T11:31:47.848Z,45.5
2023-09-27T11:34:42.470Z,45.1
2023-09-27T11:37:40.326Z,43.7
2023-09-27T11:40:28.160Z,43.8
2023-09-27T11:43:20.518Z,42.9
2023-09-27T11:46:19.228Z,41.1
2023-09-27T11:49:14.639Z,42.6
2023-09-27T11:52:02.627Z,40.5
2023-09-27T11:54:56.365Z,40.8
2023-09-27T11:57:43.758Z,40.8
2023-09-27T12:00:32.290Z,40.4
2023-09-27T12:03:21.091Z,39.8
2023-09-27T12:06:11.579Z,40.3
2023-09-27T12:09:00.385Z,38.9
2023-09-27T12:11:50.984Z,39.4
2023-09-27T12:14:38.480Z,39.4
2023-09-27T12:17:26.538Z,37.8
2023-09-27T12:20:26.997Z,36.9
2023-09-27T12:23:25.092Z,37.4
2023-09-27T12:26:13.036Z,38.4
2023-09-27T12:29:00.617Z,35.2
2023-09-27T12:31:48.770Z,36.9
2023-09-27T12:34:36.779Z,36.7
2023-09-27T12:37:24.900Z,36
2023-09-27T12:40:12.309Z,36
2023-09-27T12:43:00.308Z,36.4
2023-09-27T12:45:48.649Z,36.2
2023-09-27T12:48:36.291Z,35
2023-09-27T12:51:34.878Z,35.8
2023-09-27T12:54:26.596Z,35.5
2023-09-27T12:57:20.448Z,33.8
2023-09-27T13:00:10.558Z,33.8
2023-09-27T13:02:59.706Z,34.1
2023-09-27T13:05:47.746Z,33.4
2023-09-27T13:08:35.542Z,33.2
2023-09-27T13:11:23.471Z,33.6
2023-09-27T13:14:10.785Z,33.2
2023-09-27T13:16:58.614Z,33.6
2023-09-27T13:19:46.254Z,32.7
2023-09-27T13:22:33.874Z,33.7
2023-09-27T13:25:22.363Z,33.4
2023-09-27T13:28:09.870Z,33.5
2023-09-27T13:30:57.303Z,33.3
2023-09-27T13:33:49.034Z,31.7
2023-09-27T13:36:39.419Z,32.9
2023-09-27T13:39:26.978Z,32.6
2023-09-27T13:42:15.632Z,30.8
2023-09-27T13:45:03.480Z,31.5
2023-09-27T13:47:52.871Z,32.3
2023-09-27T13:50:40.621Z,31.5
2023-09-27T13:53:28.049Z,31.7
2023-09-27T13:56:15.742Z,31.3
2023-09-27T13:59:03.147Z,30
2023-09-27T14:01:51.285Z,31.6
2023-09-27T14:04:39.103Z,30.6
2023-09-27T14:07:27.548Z,32.3
2023-09-27T14:10:14.925Z,30.6
2023-09-27T14:13:03.205Z,32.1
2023-09-27T14:15:50.867Z,32.6
2023-09-27T14:18:38.862Z,32.5
2023-09-27T14:21:26.695Z,31.2
2023-09-27T14:24:14.397Z,32.6
2023-09-27T14:27:02.243Z,33
2023-09-27T14:29:51.321Z,33.2
2023-09-27T14:32:38.876Z,33.7
2023-09-27T14:38:25.448Z,33.2
2023-09-27T14:41:15.171Z,33.9
2023-09-27T14:44:02.566Z,34.4
2023-09-27T14:46:51.568Z,35
2023-09-27T14:49:39.185Z,34.4
2023-09-27T14:52:26.718Z,34.8
2023-09-27T14:55:14.157Z,34.2
2023-09-27T14:58:03.610Z,35.2
2023-09-27T15:00:51.152Z,34.5
2023-09-27T15:03:38.700Z,35.5
2023-09-27T15:06:26.127Z,35.3
2023-09-27T15:09:13.633Z,35.8
2023-09-27T15:12:01.403Z,35.7
2023-09-27T15:14:49.448Z,35.6
2023-09-27T15:17:37.305Z,36.1
2023-09-27T15:20:25.849Z,36.4
2023-09-27T15:23:14.056Z,36.5
2023-09-27T15:26:01.611Z,36.5
2023-09-27T15:28:49.747Z,37.4
2023-09-27T15:31:37.388Z,37
2023-09-27T15:34:24.904Z,36.9
2023-09-27T15:37:12.613Z,37.3
2023-09-27T15:40:00.535Z,37.6
2023-09-27T15:42:51.112Z,38
2023-09-27T15:45:39.908Z,37.7
2023-09-27T15:48:27.979Z,38.2
2023-09-27T15:51:17.960Z,39.2
2023-09-27T15:54:17.925Z,41
2023-09-27T15:57:06.023Z,40.4
2023-09-27T15:59:53.515Z,40.5
2023-09-27T16:02:40.997Z,41.4
2023-09-27T16:05:28.727Z,42.6
2023-09-27T16:08:16.988Z,43.6
2023-09-27T16:11:06.517Z,44.4
2023-09-27T16:13:54.386Z,44.6
2023-09-27T16:16:42.359Z,44.9
2023-09-27T16:25:05.566Z,46.5
2023-09-27T16:28:35.380Z,47.2
2023-09-27T16:31:55.981Z,47.9
2023-09-27T16:34:43.942Z,48.6
2023-09-27T16:37:32.218Z,49.3
2023-09-27T16:40:21.318Z,49.5
2023-09-27T16:43:09.208Z,50
2023-09-27T16:45:57.825Z,50.2
2023-09-27T16:48:51.639Z,50.6
2023-09-27T16:51:39.745Z,50.7
2023-09-27T16:54:27.701Z,51.4
2023-09-27T16:57:16.086Z,51.4
2023-09-27T17:00:04.880Z,51.7
2023-09-27T17:02:56.584Z,52.2
2023-09-27T17:05:44.753Z,52.3
2023-09-27T17:08:33.133Z,52.4
2023-09-27T17:11:22.085Z,52.6
2023-09-27T17:14:10.889Z,52.9
2023-09-27T17:16:59.003Z,52.9
2023-09-27T17:19:47.767Z,53.2
2023-09-27T17:22:36.581Z,53.7
2023-09-27T17:25:24.453Z,53.7
2023-09-27T17:28:12.384Z,54
2023-09-27T17:31:00.297Z,54.1
2023-09-27T17:33:48.841Z,54.2
2023-09-27T17:36:37.363Z,54.3
2023-09-27T17:39:25.352Z,54.7
2023-09-27T17:42:13.478Z,54.8
2023-09-27T17:45:01.660Z,55.1
2023-09-27T17:47:50.670Z,55.7
2023-09-27T17:50:38.743Z,55.9
2023-09-27T17:53:26.615Z,56.3
2023-09-27T17:56:14.506Z,55.9
2023-09-27T17:59:02.490Z,55.8
2023-09-27T18:01:50.973Z,56.2
2023-09-27T18:04:39.900Z,56.1
2023-09-27T18:07:27.471Z,56.2
2023-09-27T18:10:14.946Z,56.3
2023-09-27T18:13:02.566Z,56.2
2023-09-27T18:15:50.119Z,56.3
2023-09-27T18:18:37.640Z,56.4
2023-09-27T18:21:25.186Z,56.4
2023-09-27T18:24:13.810Z,56.6
2023-09-27T18:27:01.429Z,56.6
2023-09-27T18:29:49.154Z,56.8
2023-09-27T18:32:36.832Z,57
2023-09-27T18:35:24.275Z,57
2023-09-27T18:38:11.580Z,57.8
2023-09-27T18:40:59.164Z,57.6
2023-09-27T18:43:47.032Z,57.8
2023-09-27T18:46:35.076Z,57.5
2023-09-27T18:49:22.838Z,57.7
2023-09-27T18:52:10.709Z,57.9
2023-09-27T18:54:58.800Z,58.5
2023-09-27T18:57:46.154Z,58.7
2023-09-27T19:00:33.928Z,59.1
2023-09-27T19:03:22.361Z,59.6
2023-09-27T19:06:10.113Z,59.4
2023-09-27T19:09:00.133Z,59.1
2023-09-27T19:11:49.466Z,59.2
2023-09-27T19:14:38.772Z,59.1
2023-09-27T19:17:26.172Z,59.2
2023-09-27T19:20:13.642Z,59.5
2023-09-27T19:23:01.473Z,59.1
2023-09-27T19:25:49.624Z,59.2
2023-09-27T19:28:37.410Z,59.4
2023-09-27T19:31:25.261Z,59.3
2023-09-27T19:34:13.064Z,59.4
2023-09-27T19:37:00.510Z,59.3
2023-09-27T19:39:48.220Z,59.6
2023-09-27T19:42:35.865Z,59.7
2023-09-27T19:45:23.364Z,59.6
2023-09-27T19:48:10.909Z,59.7
2023-09-27T19:50:58.511Z,59.7
2023-09-27T19:53:46.358Z,59.8
2023-09-27T19:56:34.057Z,59.8
2023-09-27T19:59:25.961Z,60.2
2023-09-27T20:02:13.450Z,60.2
2023-09-27T20:05:01.839Z,60.3
2023-09-27T20:07:49.863Z,60.9
2023-09-27T20:10:37.505Z,60.7
2023-09-27T20:13:25.062Z,61
2023-09-27T20:16:12.672Z,60.5
2023-09-27T20:19:00.933Z,60.4
2023-09-27T20:21:50.006Z,60.3
2023-09-27T20:24:40.749Z,60
2023-09-27T20:27:28.117Z,60.2
2023-09-27T20:30:15.610Z,59.9
2023-09-27T20:33:03.307Z,59.9
2023-09-27T20:35:51.096Z,59.8
2023-09-27T20:38:39.155Z,59.9
2023-09-27T20:41:26.734Z,59.7
2023-09-27T20:44:14.164Z,59.4
2023-09-27T20:47:01.892Z,59.3
2023-09-27T20:49:49.766Z,59.1
2023-09-27T20:52:38.644Z,59.2
2023-09-27T20:55:26.240Z,59.2
2023-09-27T20:58:13.903Z,59.2
2023-09-27T21:01:01.402Z,59.2
2023-09-27T21:03:53.019Z,59.3
2023-09-27T21:06:40.860Z,59.1
2023-09-27T21:09:29.541Z,59.1
2023-09-27T21:12:18.243Z,59.1
2023-09-27T21:15:05.648Z,58.9
2023-09-27T21:17:54.202Z,59.1
2023-09-27T21:20:41.656Z,59.4
2023-09-27T21:23:29.032Z,59.3
2023-09-27T21:26:19.869Z,59.2
2023-09-27T21:29:09.341Z,59.6
2023-09-27T21:31:58.084Z,59.4
2023-09-27T21:34:46.664Z,59.4
2023-09-27T21:37:36.069Z,59.6
2023-09-27T21:40:24.508Z,59.3
2023-09-27T21:43:11.891Z,59.3
2023-09-27T21:45:59.255Z,59.2
2023-09-27T21:48:47.020Z,59.4
2023-09-27T21:51:34.728Z,59.7
2023-09-27T21:54:23.260Z,60.1
2023-09-27T21:57:10.730Z,60.1
2023-09-27T22:00:00.453Z,60.3
2023-09-27T22:02:49.040Z,60.2
2023-09-27T22:05:36.708Z,60.3
2023-09-27T22:08:24.349Z,60.6
2023-09-27T22:11:11.800Z,60.4
2023-09-27T22:14:01.471Z,60.5
2023-09-27T22:16:50.417Z,60.7
2023-09-27T22:19:42.605Z,60.7
2023-09-27T22:22:30.349Z,60.7
2023-09-27T22:25:19.160Z,60.7
2023-09-27T22:28:06.662Z,60.6
2023-09-27T22:31:02.125Z,60.7
2023-09-27T22:33:57.456Z,60.6
2023-09-27T22:36:55.728Z,60.5
2023-09-27T22:39:47.184Z,60.7
2023-09-27T22:42:34.943Z,60.8
2023-09-27T22:45:22.893Z,60.8
2023-09-27T22:48:20.953Z,61.1
2023-09-27T22:51:08.318Z,61.1
2023-09-27T22:53:56.063Z,60.9
2023-09-27T22:56:46.320Z,61.1
2023-09-27T22:59:35.803Z,61.2
2023-09-27T23:02:23.676Z,61.6
2023-09-27T23:05:11.153Z,61.4
2023-09-27T23:08:13.348Z,61.8
2023-09-27T23:11:12.085Z,61.7
2023-09-27T23:13:59.772Z,61.9
2023-09-27T23:16:50.580Z,62
2023-09-27T23:20:03.532Z,62
2023-09-27T23:22:54.871Z,61.9
2023-09-27T23:25:42.730Z,61.9
2023-09-27T23:28:37.442Z,61.9
2023-09-27T23:31:29.002Z,62.3
2023-09-27T23:34:16.762Z,61.9
2023-09-27T23:37:04.053Z,62
2023-09-27T23:39:54.024Z,62.1
2023-09-27T23:42:41.262Z,62.2
2023-09-27T23:45:32.888Z,56
2023-09-27T23:48:21.454Z,54.2
2023-09-27T23:51:09.424Z,54.5
2023-09-27T23:53:56.886Z,55.6
2023-09-27T23:56:45.389Z,56.8
2023-09-27T23:59:33.833Z,57.6
